Latest Coastal Weather Observations for Stenhouse Bay

IDS60701

Issued at 1:31 pm CDT Sunday 1 March 2015 (issued every 10 minutes, with the page automatically refreshed every 10 minutes)

About coastal observations | Map of coastal stations | Coastal observations for SA | Marine services | Other Formats
Station Details ID: 022049 Name: STENHOUSE BAY Lat: -35.28 Lon: 136.94 Height: 42.0 m
Data from the previous 72 hours. | See also: Recent months at Stenhouse Bay
Date/Time
CDT
Temp

°C
Wind Pressure Rain
since 9am
mm
Weather Cloud Vis
km
Sea
Height
m
Swell
Dir
 
Speed
knots
Gust
knots
hPa Trend Height
m
Period
s
Dir
01/01:30pm 21.8 S 8 13 1017.8 - 0.0 - - - - - - -
01/01:00pm 21.4 S 9 12 1018.2 - 0.0 - - - - - - -
01/12:30pm 20.9 SSW 6 9 1018.4 - 0.0 - - - - - - -
01/12:00pm 20.0 S 7 10 1018.5 - 0.0 - - - - - - -
01/11:30am 19.0 S 7 10 1018.7 - 0.0 - - - - - - -
01/11:00am 18.6 S 10 14 1018.6 - 0.0 - - - - - - -
01/10:30am 18.5 S 10 14 1018.3 - 0.0 - - - - - - -
01/10:00am 18.9 S 13 17 1017.9 - 0.0 - - - - - - -
01/09:30am 17.7 S 12 15 1017.4 - 0.0 - - - - - - -
01/09:00am 17.9 S 11 14 1017.1 - 1.8 - - - - - - -
01/08:30am 17.1 S 13 16 1016.8 - 1.8 - - - - - - -
01/08:00am 16.6 S 13 16 1016.2 - 1.8 - - - - - - -
01/07:30am 16.4 S 15 22 1015.7 - 1.8 - - - - - - -
01/07:00am 16.3 S 15 19 1015.1 - 1.8 - - - - - - -
01/06:30am 16.1 S 15 20 1014.8 - 1.8 - - - - - - -
01/06:00am 16.6 S 17 23 1014.4 - 1.8 - - - - - - -
01/05:30am 16.0 S 17 21 1014.1 - 1.8 - - - - - - -
01/05:00am 16.3 S 17 22 1013.8 - 1.8 - - - - - - -
01/04:30am 16.5 S 18 23 1013.5 - 1.8 - - - - - - -
01/04:00am 16.5 SSW 14 18 1013.4 - 1.8 - - - - - - -
01/03:30am 16.5 S 14 19 1013.4 - 1.8 - - - - - - -
01/03:00am 16.4 S 18 23 1013.6 - 1.8 - - - - - - -
01/02:30am 16.6 SSW 17 23 1013.5 - 1.8 - - - - - - -
01/02:00am 16.8 SSW 14 20 1013.5 - 1.8 - - - - - - -
01/01:30am 16.9 SSW 14 24 1013.5 - 1.8 - - - - - - -
01/01:00am 17.0 SSW 18 24 1013.2 - 1.8 - - - - - - -
01/12:30am 17.1 SSW 18 25 1013.2 - 1.8 - - - - - - -
01/12:00am 17.4 SSW 15 23 1013.1 - 1.8 - - - - - - -
 
Date/Time
CDT
Temp

°C
Wind Pressure Rain
since 9am
mm
Weather Cloud Vis
km
Sea
Height
m
Swell
Dir
 
Speed
knots
Gust
knots
hPa Trend Height
m
Period
s
Dir
28/11:30pm 17.4 SSW 16 24 1013.2 - 1.8 - - - - - - -
28/11:00pm 17.6 SSW 18 25 1013.2 - 1.8 - - - - - - -
28/10:30pm 17.5 SSW 16 23 1013.0 - 1.8 - - - - - - -
28/10:00pm 17.6 SSW 17 23 1012.7 - 1.8 - - - - - - -
28/09:30pm 17.7 SSW 16 23 1012.3 - 1.8 - - - - - - -
28/09:00pm 17.8 SSW 16 22 1011.8 - 1.8 - - - - - - -
28/08:30pm 17.9 SW 14 20 1011.1 - 1.8 - - - - - - -
28/08:00pm 18.5 SSW 15 22 1010.7 - 1.8 - - - - - - -
28/07:30pm 18.8 SSW 15 23 1009.9 - 1.8 - - - - - - -
28/07:00pm 19.3 SSW 13 21 1009.5 - 1.8 - - - - - - -
28/06:30pm 19.9 SW 13 20 1009.2 - 1.8 - - - - - - -
28/06:00pm 20.4 SW 13 20 1008.8 - 1.8 - - - - - - -
28/05:30pm 20.1 SW 12 19 1008.1 - 1.8 - - - - - - -
28/05:00pm 20.1 SW 11 17 1007.8 - 1.8 - - - - - - -
28/04:30pm 19.9 SSW 15 22 1007.2 - 1.8 - - - - - - -
28/04:00pm 19.7 SSW 12 20 1007.2 - 1.8 - - - - - - -
28/03:30pm 21.1 SSW 12 17 1006.7 - 0.0 - - - - - - -
28/03:00pm 20.7 SW 12 18 1006.5 - 0.0 - - - - - - -
28/02:30pm 20.5 SW 15 22 1005.9 - 0.0 - - - - - - -
28/02:00pm 22.0 SW 14 19 1005.7 - 0.0 - - - - - - -
28/01:30pm 23.5 SW 13 17 1005.2 - 0.0 - - - - - - -
28/01:00pm 21.8 SW 14 19 1005.2 - 0.0 - - - - - - -
28/12:30pm 23.5 SW 12 19 1005.4 - 0.0 - - - - - - -
28/12:00pm 24.8 SW 11 15 1005.1 - 0.0 - - - - - - -
28/11:30am 25.4 SW 11 15 1004.9 - 0.0 - - - - - - -
28/11:00am 23.4 SW 7 10 1004.8 - 0.0 - - - - - - -
28/10:30am 22.9 SW 8 11 1004.6 - 0.0 - - - - - - -
28/10:00am 23.1 SW 11 15 1004.0 - 0.0 - - - - - - -
28/09:30am 25.2 W 8 11 1004.2 - 0.0 - - - - - - -
28/09:00am 24.4 WNW 8 12 1004.1 - 0.0 - - - - - - -
28/08:30am 23.3 NNW 3 5 1003.8 - 0.0 - - - - - - -
28/08:00am 21.0 N 3 4 1003.4 - 0.0 - - - - - - -
28/07:30am 19.9 N 5 7 1003.2 - 0.0 - - - - - - -
28/07:00am 20.0 N 5 5 1003.0 - 0.0 - - - - - - -
28/06:30am 20.5 NNE 2 4 1002.9 - 0.0 - - - - - - -
28/06:00am 20.9 NNE 3 5 1002.8 - 0.0 - - - - - - -
28/05:30am 20.9 NE 4 5 1002.7 - 0.0 - - - - - - -
28/05:00am 21.1 NE 5 6 1002.4 - 0.0 - - - - - - -
28/04:30am 21.7 ENE 6 7 1002.4 - 0.0 - - - - - - -
28/04:00am 22.1 ENE 6 8 1002.6 - 0.0 - - - - - - -
28/03:30am 22.2 NE 8 11 1002.8 - 0.0 - - - - - - -
28/03:00am 22.4 NE 10 13 1003.1 - 0.0 - - - - - - -
28/02:30am 22.9 NE 15 20 1003.4 - 0.0 - - - - - - -
28/02:00am 22.9 NE 11 16 1003.9 - 0.0 - - - - - - -
28/01:30am 22.7 NE 12 15 1004.3 - 0.0 - - - - - - -
28/01:00am 22.1 ENE 6 8 1004.8 - 0.0 - - - - - - -
28/12:30am 21.5 ENE 6 8 1005.4 - 0.0 - - - - - - -
28/12:00am 21.5 ENE 7 10 1005.8 - 0.0 - - - - - - -
 
Date/Time
CDT
Temp

°C
Wind Pressure Rain
since 9am
mm
Weather Cloud Vis
km
Sea
Height
m
Swell
Dir
 
Speed
knots
Gust
knots
hPa Trend Height
m
Period
s
Dir
27/11:30pm 21.6 ENE 9 13 1006.1 - 0.0 - - - - - - -
27/11:00pm 21.8 ENE 11 15 1007.0 - 0.0 - - - - - - -
27/10:30pm 21.7 ENE 9 14 1007.4 - 0.0 - - - - - - -
27/10:00pm 21.6 ENE 7 9 1007.6 - 0.0 - - - - - - -
27/09:30pm 21.5 E 2 3 1008.0 - 0.0 - - - - - - -
27/09:00pm 21.7 SE 4 6 1008.1 - 0.0 - - - - - - -
27/08:30pm 22.2 ESE 6 11 1007.8 - 0.0 - - - - - - -
27/08:00pm 22.3 ENE 2 5 1007.3 - 0.0 - - - - - - -
27/07:30pm 22.6 E 2 5 1007.1 - 0.0 - - - - - - -
27/07:00pm 22.5 ESE 6 8 1006.4 - 0.0 - - - - - - -
27/06:30pm 22.9 ESE 3 7 1006.3 - 0.0 - - - - - - -
27/06:00pm 22.8 ENE 3 4 1006.5 - 0.0 - - - - - - -
27/05:30pm 22.2 E 3 5 1006.3 - 0.0 - - - - - - -
27/05:00pm 22.3 E 4 6 1005.9 - 0.0 - - - - - - -
27/04:30pm 23.2 ESE 7 9 1006.0 - 0.0 - - - - - - -
27/04:00pm 22.7 ESE 5 7 1006.5 - 0.0 - - - - - - -
27/03:30pm 22.4 ESE 5 7 1006.6 - 0.0 - - - - - - -
27/03:00pm 22.6 SSE 5 6 1007.0 - 0.0 - - - - - - -
27/02:30pm 22.4 SSE 5 7 1007.5 - 0.0 - - - - - - -
27/02:00pm 23.0 S 6 7 1007.5 - 0.0 - - - - - - -
27/01:30pm 24.2 SE 5 7 1007.6 - 0.0 - - - - - - -
27/01:00pm 23.6 ESE 5 7 1008.1 - 0.0 - - - - - - -
27/12:30pm 23.5 ESE 5 6 1008.3 - 0.0 - - - - - - -
27/12:00pm 23.5 ESE 7 8 1008.5 - 0.0 - - - - - - -
27/11:30am 23.3 ENE 7 10 1008.9 - 0.0 - - - - - - -
27/11:00am 22.6 E 7 9 1009.3 - 0.0 - - - - - - -
27/10:30am 21.9 ENE 6 7 1009.7 - 0.0 - - - - - - -
27/10:00am 21.9 E 8 9 1009.4 - 0.0 - - - - - - -
27/09:30am 21.4 E 7 8 1009.7 - 0.0 - - - - - - -
27/09:00am 21.3 E 6 7 1009.7 - 0.0 - - - - - - -
27/08:30am 21.3 E 6 8 1009.8 - 0.0 - - - - - - -
27/08:00am 20.8 ENE 6 7 1009.5 - 0.0 - - - - - - -
27/07:30am 20.2 ENE 6 8 1009.0 - 0.0 - - - - - - -
27/07:00am 19.9 E 7 9 1008.7 - 0.0 - - - - - - -
27/06:30am 19.7 ENE 8 10 1008.7 - 0.0 - - - - - - -
27/06:00am 19.6 ENE 7 9 1008.5 - 0.0 - - - - - - -
27/05:30am 19.5 ENE 8 10 1008.5 - 0.0 - - - - - - -
27/05:00am 19.6 E 9 12 1008.6 - 0.0 - - - - - - -
27/04:30am 19.5 ENE 8 10 1008.8 - 0.0 - - - - - - -
27/04:00am 19.6 E 9 12 1009.0 - 0.0 - - - - - - -
27/03:30am 19.4 E 8 10 1009.3 - 0.0 - - - - - - -
27/03:00am 19.1 E 9 12 1009.4 - 0.0 - - - - - - -
27/02:30am 19.3 E 8 11 1009.5 - 0.0 - - - - - - -
27/02:00am 19.3 E 10 11 1009.9 - 0.0 - - - - - - -
27/01:30am 19.3 ESE 9 11 1010.5 - 0.0 - - - - - - -
27/01:00am 19.4 ESE 8 10 1010.9 - 0.0 - - - - - - -
27/12:30am 20.2 E 8 11 1011.0 - 0.0 - - - - - - -
27/12:00am 19.6 E 7 9 1011.1 - 0.0 - - - - - - -
 
Date/Time
CDT
Temp

°C
Wind Pressure Rain
since 9am
mm
Weather Cloud Vis
km
Sea
Height
m
Swell
Dir
 
Speed
knots
Gust
knots
hPa Trend Height
m
Period
s
Dir
26/11:30pm 19.5 E 5 6 1011.4 - 0.0 - - - - - - -
26/11:00pm 19.9 E 5 7 1011.5 - 0.0 - - - - - - -
26/10:30pm 19.2 ESE 2 5 1011.5 - 0.0 - - - - - - -
26/10:00pm 19.4 ESE 3 4 1011.5 - 0.0 - - - - - - -
26/09:30pm 19.4 ESE 3 3 1011.5 - 0.0 - - - - - - -
26/09:00pm 19.5 SE 3 4 1011.3 - 0.0 - - - - - - -
26/08:30pm 19.6 SSW 3 4 1011.0 - 0.0 - - - - - - -
26/08:00pm 19.9 S 5 5 1010.8 - 0.0 - - - - - - -
26/07:30pm 21.0 S 5 7 1010.7 - 0.0 - - - - - - -
26/07:00pm 22.0 SW 8 9 1010.4 - 0.0 - - - - - - -
26/06:30pm 23.0 SW 4 6 1010.2 - 0.0 - - - - - - -
26/06:00pm 22.4 SW 7 10 1010.3 - 0.0 - - - - - - -
26/05:30pm 23.0 SW 10 13 1010.3 - 0.0 - - - - - - -
26/05:00pm 23.0 SW 10 12 1010.5 - 0.0 - - - - - - -
26/04:30pm 23.5 SW 7 10 1010.7 - 0.0 - - - - - - -
26/04:00pm 23.0 SSW 6 7 1010.7 - 0.0 - - - - - - -
26/03:30pm 22.1 SSW 5 6 1011.0 - 0.0 - - - - - - -
26/03:00pm 22.6 SSW 7 9 1011.4 - 0.0 - - - - - - -
26/02:30pm 22.3 SSW 8 9 1011.9 - 0.0 - - - - - - -
26/02:00pm 22.2 SSW 9 11 1012.1 - 0.0 - - - - - - -

Other Formats:

Comma delimited format used in spreadsheet applications
http://www.bom.gov.au/fwo/IDS60701/IDS60701.95806.axf

JavaScript Object Notation format (JSON) in row-major order
http://www.bom.gov.au/fwo/IDS60701/IDS60701.95806.json